createdAt,value
2023-04-15T00:01:19.235Z,7.40
2023-04-15T00:03:49.052Z,7.20
2023-04-15T00:06:17.318Z,7.00
2023-04-15T00:08:45.419Z,7.20
2023-04-15T00:11:13.642Z,7.10
2023-04-15T00:13:41.964Z,7.10
2023-04-15T00:16:11.708Z,7.70
2023-04-15T00:18:39.741Z,8.20
2023-04-15T00:21:08.064Z,8.40
2023-04-15T00:23:41.008Z,8.60
2023-04-15T00:26:09.739Z,8.80
2023-04-15T00:28:38.567Z,7.70
2023-04-15T00:31:06.702Z,7.60
2023-04-15T00:33:36.856Z,7.60
2023-04-15T00:36:05.837Z,7.80
2023-04-15T00:38:33.955Z,8.00
2023-04-15T00:41:02.023Z,7.70
2023-04-15T00:43:30.150Z,8.30
2023-04-15T00:45:58.580Z,8.40
2023-04-15T00:48:27.221Z,8.10
2023-04-15T00:50:56.827Z,8.20
2023-04-15T00:53:24.984Z,8.50
2023-04-15T00:55:53.053Z,8.50
2023-04-15T00:58:21.364Z,8.40
2023-04-15T01:00:49.454Z,8.30
2023-04-15T01:03:17.638Z,8.50
2023-04-15T01:05:45.976Z,8.30
2023-04-15T01:08:15.409Z,8.30
2023-04-15T01:10:44.062Z,8.00
2023-04-15T01:13:12.351Z,8.10
2023-04-15T01:15:40.416Z,7.60
2023-04-15T01:18:09.710Z,8.00
2023-04-15T01:20:37.773Z,7.50
2023-04-15T01:23:06.237Z,7.70
2023-04-15T01:25:35.908Z,8.00
2023-04-15T01:28:05.070Z,7.70
2023-04-15T01:30:35.879Z,7.30
2023-04-15T01:33:04.117Z,7.20
2023-04-15T01:35:32.272Z,7.30
2023-04-15T01:38:02.577Z,7.50
2023-04-15T01:40:30.902Z,7.50
2023-04-15T01:43:00.389Z,7.10
2023-04-15T01:45:28.494Z,7.10
2023-04-15T01:47:56.685Z,7.20
2023-04-15T01:50:26.206Z,7.40
2023-04-15T01:52:54.266Z,7.30
2023-04-15T01:55:22.481Z,7.20
2023-04-15T01:57:50.587Z,6.80
2023-04-15T02:00:20.250Z,7.00
2023-04-15T02:02:48.434Z,7.00
2023-04-15T02:05:16.787Z,7.80
2023-04-15T02:07:45.030Z,8.20
2023-04-15T02:10:13.624Z,8.20
2023-04-15T02:12:41.784Z,7.70
2023-04-15T02:15:11.292Z,7.70
2023-04-15T02:17:40.800Z,7.60
2023-04-15T02:20:11.543Z,7.50
2023-04-15T02:22:39.541Z,7.50
2023-04-15T02:25:09.197Z,7.50
2023-04-15T02:27:37.433Z,7.70
2023-04-15T02:30:06.211Z,7.70
2023-04-15T02:32:34.312Z,7.20
2023-04-15T02:35:05.797Z,7.20
2023-04-15T02:37:37.071Z,7.70
2023-04-15T02:40:05.661Z,7.50
2023-04-15T02:42:33.687Z,7.20
2023-04-15T02:45:01.789Z,7.10
2023-04-15T02:47:29.863Z,7.10
2023-04-15T02:49:58.720Z,7.30
2023-04-15T02:52:28.210Z,7.30
2023-04-15T02:55:00.511Z,7.30
2023-04-15T02:57:29.665Z,7.10
2023-04-15T02:59:57.727Z,7.30
2023-04-15T03:02:25.993Z,6.90
2023-04-15T03:04:54.206Z,6.90
2023-04-15T03:07:22.302Z,7.40
2023-04-15T03:09:51.704Z,7.00
2023-04-15T03:12:19.746Z,7.40
2023-04-15T03:14:47.794Z,7.60
2023-04-15T03:17:16.476Z,7.00
2023-04-15T03:19:45.406Z,7.00
2023-04-15T03:22:13.433Z,7.20
2023-04-15T03:24:41.587Z,7.20
2023-04-15T03:27:11.089Z,7.50
2023-04-15T03:29:39.150Z,7.50
2023-04-15T03:32:07.364Z,7.20
2023-04-15T03:34:35.583Z,7.40
2023-04-15T03:37:03.637Z,7.20
2023-04-15T03:39:31.742Z,7.40
2023-04-15T03:42:00.315Z,7.70
2023-04-15T03:44:29.764Z,8.20
2023-04-15T03:46:57.902Z,7.90
2023-04-15T03:49:26.174Z,7.70
2023-04-15T03:51:54.325Z,7.70
2023-04-15T03:54:22.436Z,7.20
2023-04-15T03:56:50.546Z,7.30
2023-04-15T03:59:18.720Z,7.40
2023-04-15T04:01:48.245Z,7.40
2023-04-15T04:04:16.692Z,7.70
2023-04-15T04:06:44.973Z,7.30
2023-04-15T04:09:13.049Z,7.40
2023-04-15T04:11:41.101Z,7.80
2023-04-15T04:14:09.211Z,7.70
2023-04-15T04:16:37.303Z,7.70
2023-04-15T04:19:07.421Z,7.50
2023-04-15T04:21:36.550Z,7.30
2023-04-15T04:24:04.734Z,7.30
2023-04-15T04:26:32.797Z,7.20
2023-04-15T04:29:01.188Z,7.40
2023-04-15T04:31:29.472Z,7.10
2023-04-15T04:34:07.915Z,7.10
2023-04-15T04:36:35.959Z,7.50
2023-04-15T04:39:04.178Z,7.50
2023-04-15T04:41:32.337Z,7.70
2023-04-15T04:44:00.536Z,7.70
2023-04-15T04:46:28.677Z,7.30
2023-04-15T04:48:57.164Z,7.50
2023-04-15T04:51:26.653Z,7.70
2023-04-15T04:53:55.101Z,7.80
2023-04-15T04:56:24.276Z,7.10
2023-04-15T04:58:52.503Z,6.70
2023-04-15T05:01:20.970Z,6.90
2023-04-15T05:03:49.390Z,7.20
2023-04-15T05:06:17.741Z,7.20
2023-04-15T05:08:47.859Z,7.20
2023-04-15T05:11:19.859Z,7.40
2023-04-15T05:13:48.409Z,7.00
2023-04-15T05:16:17.140Z,6.40
2023-04-15T05:18:45.689Z,6.30
2023-04-15T05:21:13.730Z,6.70
2023-04-15T05:23:44.234Z,6.70
2023-04-15T05:26:14.376Z,7.20
2023-04-15T05:28:42.762Z,7.70
2023-04-15T05:31:10.956Z,7.60
2023-04-15T05:33:39.332Z,7.70
2023-04-15T05:36:08.242Z,7.70
2023-04-15T05:38:36.357Z,7.50
2023-04-15T05:41:04.495Z,7.60
2023-04-15T05:43:34.143Z,7.30
2023-04-15T05:46:04.006Z,7.50
2023-04-15T05:48:32.218Z,7.60
2023-04-15T05:51:00.252Z,7.70
2023-04-15T05:53:28.327Z,8.20
2023-04-15T05:55:57.259Z,8.40
2023-04-15T05:58:25.813Z,8.50
2023-04-15T06:00:55.911Z,8.50
2023-04-15T06:03:24.578Z,8.70
2023-04-15T06:05:53.125Z,9.10
2023-04-15T06:08:21.670Z,9.20
2023-04-15T06:10:49.970Z,9.00
2023-04-15T06:13:18.729Z,8.90
2023-04-15T06:15:46.821Z,8.90
2023-04-15T06:18:16.975Z,9.00
2023-04-15T06:20:45.205Z,9.20
2023-04-15T06:23:13.404Z,9.20
2023-04-15T06:25:41.665Z,9.50
2023-04-15T06:28:10.192Z,9.80
2023-04-15T06:30:38.586Z,10.30
2023-04-15T06:33:07.562Z,10.30
2023-04-15T06:35:37.248Z,10.70
2023-04-15T06:38:05.398Z,10.80
2023-04-15T06:40:33.654Z,11.30
2023-04-15T06:43:01.969Z,11.70
2023-04-15T06:45:30.220Z,11.80
2023-04-15T06:47:58.342Z,11.90
2023-04-15T06:50:26.676Z,12.20
2023-04-15T06:53:00.837Z,12.30
2023-04-15T06:55:28.960Z,12.70
2023-04-15T06:57:57.132Z,12.90
2023-04-15T07:00:25.491Z,12.90
2023-04-15T07:02:54.316Z,13.20
2023-04-15T07:05:22.576Z,13.40
2023-04-15T07:07:51.676Z,13.50
2023-04-15T07:10:21.230Z,13.80
2023-04-15T07:12:50.707Z,14.30
2023-04-15T07:15:18.945Z,14.30
2023-04-15T07:17:47.259Z,14.50
2023-04-15T07:20:15.372Z,15.00
2023-04-15T07:22:43.658Z,15.20
2023-04-15T07:25:11.889Z,15.00
2023-04-15T07:27:41.736Z,15.00
2023-04-15T07:30:10.806Z,15.20
2023-04-15T07:32:38.944Z,15.40
2023-04-15T07:35:07.946Z,14.80
2023-04-15T07:37:36.182Z,15.00
2023-04-15T07:40:05.048Z,15.30
2023-04-15T07:42:33.197Z,15.70
2023-04-15T07:45:02.770Z,15.50
2023-04-15T07:47:30.943Z,15.20
2023-04-15T07:49:59.052Z,15.40
2023-04-15T07:52:27.232Z,15.30
2023-04-15T07:54:55.325Z,15.40
2023-04-15T07:57:23.372Z,15.40
2023-04-15T07:59:51.486Z,15.20
2023-04-15T08:02:21.139Z,15.30
2023-04-15T08:04:49.452Z,15.20
2023-04-15T08:07:18.176Z,15.00
2023-04-15T08:09:46.404Z,14.40
2023-04-15T08:12:14.991Z,15.10
2023-04-15T08:14:43.080Z,15.10
2023-04-15T08:17:11.230Z,15.00
2023-04-15T08:19:41.576Z,15.00
2023-04-15T08:22:10.369Z,15.60
2023-04-15T08:24:45.796Z,14.30
2023-04-15T08:27:14.011Z,15.20
2023-04-15T08:29:42.078Z,15.80
2023-04-15T08:32:10.196Z,16.30
2023-04-15T08:34:38.571Z,16.40
2023-04-15T08:37:08.347Z,16.40
2023-04-15T08:39:36.504Z,16.70
2023-04-15T08:42:07.401Z,16.40
2023-04-15T08:44:36.977Z,16.50
2023-04-15T08:47:06.126Z,15.70
2023-04-15T08:49:34.351Z,15.80
2023-04-15T08:52:04.404Z,15.50
2023-04-15T08:54:33.951Z,16.50
2023-04-15T08:57:02.507Z,16.50
2023-04-15T08:59:31.250Z,15.90
2023-04-15T09:01:59.509Z,15.60
2023-04-15T09:04:27.974Z,15.60
2023-04-15T09:06:57.355Z,16.00
2023-04-15T09:09:25.554Z,16.20
2023-04-15T09:11:55.000Z,16.60
2023-04-15T09:14:23.447Z,17.10
2023-04-15T09:16:58.263Z,17.30
2023-04-15T09:19:26.487Z,16.30
2023-04-15T09:21:57.987Z,16.70
2023-04-15T09:24:27.535Z,18.20
2023-04-15T09:26:57.049Z,17.00
2023-04-15T09:29:26.734Z,18.30
2023-04-15T09:31:54.872Z,17.50
2023-04-15T09:34:23.510Z,15.90
2023-04-15T09:36:56.958Z,17.40
2023-04-15T09:39:25.130Z,18.20
2023-04-15T09:42:08.065Z,18.70
2023-04-15T09:44:36.558Z,18.40
2023-04-15T09:47:04.648Z,18.20
2023-04-15T09:49:33.064Z,16.20
2023-04-15T09:52:05.756Z,16.30
2023-04-15T09:54:36.463Z,16.00
2023-04-15T09:57:10.180Z,17.10
2023-04-15T09:59:38.841Z,16.80
2023-04-15T10:02:08.396Z,15.20
2023-04-15T10:04:37.769Z,15.30
2023-04-15T10:07:06.673Z,15.30
2023-04-15T10:09:35.503Z,15.00
2023-04-15T10:12:04.295Z,15.30
2023-04-15T10:14:35.640Z,16.10
2023-04-15T10:17:04.172Z,15.30
2023-04-15T10:19:33.136Z,15.30
2023-04-15T10:22:01.632Z,15.30
2023-04-15T10:24:31.098Z,16.60
2023-04-15T10:26:59.541Z,15.60
2023-04-15T10:29:29.203Z,16.20
2023-04-15T10:31:59.092Z,16.90
2023-04-15T10:34:27.459Z,15.50
2023-04-15T10:36:57.642Z,15.80
2023-04-15T10:39:43.136Z,16.80
2023-04-15T10:42:12.318Z,15.20
2023-04-15T10:44:40.896Z,16.70
2023-04-15T10:47:14.050Z,16.50
2023-04-15T10:49:46.750Z,16.80
2023-04-15T10:52:15.893Z,18.10
2023-04-15T10:54:45.456Z,18.30
2023-04-15T10:57:18.226Z,18.20
2023-04-15T11:00:04.827Z,17.90
2023-04-15T11:02:54.974Z,16.00
2023-04-15T11:05:44.644Z,17.60
2023-04-15T11:08:13.056Z,17.80
2023-04-15T11:10:56.329Z,16.50
2023-04-15T11:13:29.032Z,16.30
2023-04-15T11:15:59.373Z,16.30
2023-04-15T11:18:30.699Z,16.80
2023-04-15T11:21:00.749Z,16.60
2023-04-15T11:23:30.257Z,17.10
2023-04-15T11:25:58.675Z,16.40
2023-04-15T11:28:28.516Z,17.50
2023-04-15T11:30:56.908Z,17.00
2023-04-15T11:33:25.118Z,17.10
2023-04-15T11:35:55.567Z,17.30
2023-04-15T11:38:23.840Z,15.80
2023-04-15T11:40:52.239Z,16.50
2023-04-15T11:43:21.745Z,15.40
2023-04-15T11:45:51.786Z,15.00
2023-04-15T11:48:19.949Z,15.70
2023-04-15T11:50:48.112Z,16.00
2023-04-15T11:53:17.719Z,16.70
2023-04-15T11:55:47.132Z,15.80
2023-04-15T11:58:16.684Z,16.10
2023-04-15T12:00:48.082Z,15.70
2023-04-15T12:03:20.691Z,15.60
2023-04-15T12:06:07.964Z,16.30
2023-04-15T12:09:01.853Z,16.80
2023-04-15T12:11:31.839Z,16.10
2023-04-15T12:14:01.083Z,15.60
2023-04-15T12:16:29.338Z,16.00
2023-04-15T12:18:59.028Z,16.20
2023-04-15T12:21:27.943Z,15.80
2023-04-15T12:23:58.188Z,16.30
2023-04-15T12:26:30.037Z,16.20
2023-04-15T12:29:01.996Z,16.10
2023-04-15T12:31:30.518Z,15.20
2023-04-15T12:33:58.810Z,16.10
2023-04-15T12:36:27.088Z,15.70
2023-04-15T12:38:55.126Z,15.80
2023-04-15T12:41:25.493Z,15.90
2023-04-15T12:43:53.611Z,16.00
2023-04-15T12:46:21.757Z,15.40
2023-04-15T12:48:49.920Z,15.70
2023-04-15T12:51:18.048Z,16.50
2023-04-15T12:53:47.854Z,15.30
2023-04-15T12:56:15.919Z,16.10
2023-04-15T12:58:45.507Z,16.20
2023-04-15T13:01:13.767Z,15.80
2023-04-15T13:03:42.086Z,15.10
2023-04-15T13:06:10.411Z,14.90
2023-04-15T13:08:42.533Z,15.50
2023-04-15T13:11:13.307Z,15.80
2023-04-15T13:13:41.561Z,15.60
2023-04-15T13:16:11.158Z,16.20
2023-04-15T13:18:39.357Z,16.00
2023-04-15T13:21:07.648Z,15.40
2023-04-15T13:23:35.695Z,15.30
2023-04-15T13:26:04.171Z,15.70
2023-04-15T13:28:32.265Z,14.80
2023-04-15T13:31:00.558Z,15.20
2023-04-15T13:33:30.323Z,15.20
2023-04-15T13:35:58.408Z,15.30
2023-04-15T13:38:26.727Z,15.10
2023-04-15T13:40:54.783Z,15.20
2023-04-15T13:43:22.864Z,14.90
2023-04-15T13:45:50.947Z,15.30
2023-04-15T13:48:19.232Z,15.40
2023-04-15T13:50:48.626Z,14.70
2023-04-15T13:53:16.966Z,15.30
2023-04-15T13:55:45.227Z,15.60
2023-04-15T13:58:13.339Z,15.90
2023-04-15T14:00:41.755Z,15.10
2023-04-15T14:03:10.086Z,15.60
2023-04-15T14:05:38.715Z,15.50
2023-04-15T14:08:08.463Z,15.40
2023-04-15T14:10:36.940Z,15.60
2023-04-15T14:13:05.188Z,15.20
2023-04-15T14:15:33.716Z,15.40
2023-04-15T14:18:02.036Z,15.10
2023-04-15T14:20:30.251Z,15.20
2023-04-15T14:22:58.423Z,15.20
2023-04-15T14:25:33.669Z,15.80
2023-04-15T14:28:02.403Z,15.60
2023-04-15T14:30:30.671Z,15.40
2023-04-15T14:32:58.814Z,15.10
2023-04-15T14:35:27.430Z,15.70
2023-04-15T14:37:55.727Z,15.70
2023-04-15T14:40:23.831Z,16.10
2023-04-15T14:42:53.450Z,15.60
2023-04-15T14:45:21.830Z,15.70
2023-04-15T14:47:49.932Z,15.00
2023-04-15T14:50:18.733Z,15.00
2023-04-15T14:52:46.778Z,15.20
2023-04-15T14:55:15.131Z,15.40
2023-04-15T14:57:43.368Z,15.30
2023-04-15T15:00:15.968Z,15.70
2023-04-15T15:02:44.656Z,14.90
2023-04-15T15:05:12.909Z,14.40
2023-04-15T15:07:41.955Z,14.50
2023-04-15T15:10:10.419Z,14.30
2023-04-15T15:12:38.476Z,14.80
2023-04-15T15:15:19.439Z,14.40
2023-04-15T15:17:56.053Z,14.30
2023-04-15T15:20:25.130Z,13.90
2023-04-15T15:22:53.524Z,14.50
2023-04-15T15:25:22.472Z,13.80
2023-04-15T15:27:51.160Z,14.10
2023-04-15T15:30:20.216Z,14.20
2023-04-15T15:32:48.790Z,13.70
2023-04-15T15:35:18.609Z,13.50
2023-04-15T15:37:47.172Z,14.00
2023-04-15T15:40:15.786Z,14.10
2023-04-15T15:42:43.967Z,14.10
2023-04-15T15:45:12.764Z,14.20
2023-04-15T15:47:41.184Z,14.50
2023-04-15T15:50:10.060Z,13.90
2023-04-15T15:52:40.190Z,13.40
2023-04-15T15:55:09.935Z,13.30
2023-04-15T15:57:38.287Z,13.70
2023-04-15T16:00:11.918Z,13.70
2023-04-15T16:05:13.396Z,13.00
2023-04-15T16:07:43.840Z,13.00
2023-04-15T16:10:14.298Z,13.90
2023-04-15T16:12:43.089Z,14.00
2023-04-15T16:15:13.661Z,13.40
2023-04-15T16:17:46.117Z,13.90
2023-04-15T16:25:04.862Z,13.40
2023-04-15T16:42:59.052Z,13.30
2023-04-15T17:02:16.257Z,12.40
2023-04-15T17:22:50.136Z,12.70
2023-04-15T17:25:21.255Z,13.10
2023-04-15T17:28:02.833Z,13.00
2023-04-15T17:30:31.486Z,13.10
2023-04-15T17:33:56.087Z,13.10
2023-04-15T17:35:55.735Z,12.80
2023-04-15T17:42:12.853Z,12.70
2023-04-15T17:44:41.492Z,13.10
2023-04-15T17:47:09.845Z,12.30
2023-04-15T17:49:38.539Z,12.30
2023-04-15T17:52:07.060Z,13.00
2023-04-15T17:54:35.971Z,12.40
2023-04-15T17:57:04.536Z,12.80
2023-04-15T17:59:35.989Z,13.20
2023-04-15T18:02:05.922Z,12.90
2023-04-15T18:04:35.374Z,12.70
2023-04-15T18:07:03.830Z,12.90
2023-04-15T18:09:35.567Z,13.00
2023-04-15T18:12:07.964Z,13.00
2023-04-15T18:14:41.043Z,13.30
2023-04-15T18:17:09.367Z,13.50
2023-04-15T18:19:37.856Z,13.80
2023-04-15T18:22:06.473Z,13.70
2023-04-15T18:24:35.174Z,13.70
2023-04-15T18:27:03.933Z,13.10
2023-04-15T18:29:33.556Z,13.10
2023-04-15T18:32:04.561Z,12.80
2023-04-15T18:34:34.236Z,12.90
2023-04-15T18:37:03.867Z,12.50
2023-04-15T18:39:33.160Z,12.50
2023-04-15T18:42:02.214Z,12.70
2023-04-15T18:44:32.292Z,12.60
2023-04-15T18:47:03.046Z,13.00
2023-04-15T18:49:34.870Z,13.00
2023-04-15T18:52:04.496Z,13.00
2023-04-15T18:54:33.722Z,12.80
2023-04-15T18:57:04.751Z,13.10
2023-04-15T18:59:34.413Z,13.20
2023-04-15T19:02:07.923Z,13.20
2023-04-15T19:04:36.376Z,13.10
2023-04-15T19:07:04.650Z,13.20
2023-04-15T19:09:32.909Z,13.30
2023-04-15T19:12:02.285Z,13.20
2023-04-15T19:14:30.818Z,13.00
2023-04-15T19:16:59.327Z,13.30
2023-04-15T19:19:30.135Z,13.30
2023-04-15T19:21:58.712Z,12.60
2023-04-15T19:24:27.380Z,13.20
2023-04-15T19:26:57.376Z,13.10
2023-04-15T19:29:26.374Z,12.90
2023-04-15T19:31:55.247Z,13.10
2023-04-15T19:34:24.992Z,13.00
2023-04-15T19:36:54.723Z,13.00
2023-04-15T19:39:23.746Z,13.20
2023-04-15T19:41:55.217Z,13.50
2023-04-15T19:44:23.537Z,13.20
2023-04-15T19:46:53.216Z,13.30
2023-04-15T19:49:21.587Z,13.40
2023-04-15T19:51:50.207Z,13.10
2023-04-15T19:54:19.664Z,13.10
2023-04-15T19:56:47.757Z,12.90
2023-04-15T19:59:15.842Z,12.90
2023-04-15T20:01:43.932Z,12.70
2023-04-15T20:04:12.227Z,13.10
2023-04-15T20:06:40.381Z,13.20
2023-04-15T20:09:10.941Z,12.80
2023-04-15T20:12:46.637Z,13.20
2023-04-15T20:14:28.823Z,13.20
2023-04-15T20:16:57.010Z,13.10
2023-04-15T20:19:25.203Z,13.20
2023-04-15T20:21:54.076Z,12.80
2023-04-15T20:24:24.327Z,12.80
2023-04-15T20:26:53.945Z,12.90
2023-04-15T20:29:22.132Z,13.10
2023-04-15T20:31:50.275Z,12.80
2023-04-15T20:34:18.420Z,12.70
2023-04-15T20:36:46.531Z,12.90
2023-04-15T20:39:14.647Z,13.10
2023-04-15T20:41:42.687Z,13.00
2023-04-15T20:44:12.110Z,13.00
2023-04-15T20:46:40.243Z,13.20
2023-04-15T20:49:08.374Z,13.40
2023-04-15T20:51:38.054Z,12.90
2023-04-15T20:54:06.265Z,13.00
2023-04-15T20:56:34.376Z,12.90
2023-04-15T20:59:02.820Z,13.20
2023-04-15T21:01:32.435Z,13.00
2023-04-15T21:04:00.652Z,12.70
2023-04-15T21:06:28.978Z,12.60
2023-04-15T21:08:57.172Z,12.60
2023-04-15T21:11:43.186Z,12.90
2023-04-15T21:14:13.468Z,12.70
2023-04-15T21:16:42.991Z,12.40
2023-04-15T21:19:11.339Z,12.50
2023-04-15T21:21:39.422Z,12.70
2023-04-15T21:24:08.072Z,12.80
2023-04-15T21:26:36.907Z,12.80
2023-04-15T21:29:05.493Z,12.70
2023-04-15T21:31:34.806Z,13.00
2023-04-15T21:34:04.394Z,13.10
2023-04-15T21:36:32.756Z,13.00
2023-04-15T21:39:01.101Z,12.70
2023-04-15T21:41:29.274Z,13.00
2023-04-15T21:43:57.467Z,13.20
2023-04-15T21:46:33.317Z,13.10
2023-04-15T21:49:07.198Z,13.10
2023-04-15T21:51:35.366Z,12.60
2023-04-15T21:54:03.465Z,12.80
2023-04-15T21:56:31.552Z,13.00
2023-04-15T21:58:59.710Z,12.90
2023-04-15T22:01:27.819Z,13.00
2023-04-15T22:03:56.058Z,12.50
2023-04-15T22:06:25.616Z,12.80
2023-04-15T22:08:57.530Z,13.10
2023-04-15T22:11:27.970Z,12.80
2023-04-15T22:13:56.885Z,13.00
2023-04-15T22:16:25.770Z,13.30
2023-04-15T22:18:54.050Z,13.20
2023-04-15T22:21:22.131Z,13.20
2023-04-15T22:23:52.009Z,13.20
2023-04-15T22:26:20.148Z,13.20
2023-04-15T22:28:48.253Z,13.30
2023-04-15T22:31:16.362Z,13.00
2023-04-15T22:33:44.444Z,13.20
2023-04-15T22:36:13.567Z,13.30
2023-04-15T22:38:41.762Z,13.30
2023-04-15T22:41:11.274Z,13.20
2023-04-15T22:43:39.489Z,13.40
2023-04-15T22:46:07.677Z,13.20
2023-04-15T22:48:35.915Z,13.20
2023-04-15T22:51:05.270Z,13.40
2023-04-15T22:53:33.384Z,13.00
2023-04-15T22:56:01.415Z,13.20
2023-04-15T22:58:32.151Z,13.00
2023-04-15T23:01:00.251Z,12.70
2023-04-15T23:03:28.529Z,13.20
2023-04-15T23:05:56.802Z,13.00
2023-04-15T23:08:24.949Z,13.20
2023-04-15T23:10:53.082Z,12.80
2023-04-15T23:13:21.166Z,12.60
2023-04-15T23:15:50.698Z,12.80
2023-04-15T23:18:18.818Z,12.40
2023-04-15T23:20:47.301Z,12.70
2023-04-15T23:23:15.651Z,12.40
2023-04-15T23:25:43.768Z,12.40
2023-04-15T23:28:11.840Z,12.70
2023-04-15T23:30:39.929Z,12.80
2023-04-15T23:33:09.455Z,12.90
2023-04-15T23:35:37.880Z,13.10
2023-04-15T23:38:05.952Z,12.00
2023-04-15T23:40:34.027Z,11.80
2023-04-15T23:43:02.151Z,11.80
2023-04-15T23:45:30.233Z,12.00
2023-04-15T23:47:58.390Z,11.80
2023-04-15T23:50:28.312Z,12.00
2023-04-15T23:52:56.450Z,12.00
2023-04-15T23:55:24.684Z,12.10
2023-04-15T23:57:52.753Z,12.30
